sensor_id;sensor_type;location;lat;lon;timestamp;P1;durP1;ratioP1;P2;durP2;ratioP2
84982;SDS011;75295;45.426;9.696;2024-01-27T00:00:00;510.95;;;164.05;;
84982;SDS011;75295;45.426;9.696;2024-01-27T00:02:27;887.80;;;230.82;;
84982;SDS011;75295;45.426;9.696;2024-01-27T00:04:53;830.08;;;227.65;;
84982;SDS011;75295;45.426;9.696;2024-01-27T00:07:21;659.83;;;193.65;;
84982;SDS011;75295;45.426;9.696;2024-01-27T00:09:49;571.58;;;188.52;;
84982;SDS011;75295;45.426;9.696;2024-01-27T00:12:16;746.63;;;197.50;;
84982;SDS011;75295;45.426;9.696;2024-01-27T00:14:43;609.67;;;187.38;;
84982;SDS011;75295;45.426;9.696;2024-01-27T00:17:10;936.03;;;231.18;;
84982;SDS011;75295;45.426;9.696;2024-01-27T00:19:37;1002.13;;;258.50;;
84982;SDS011;75295;45.426;9.696;2024-01-27T00:22:04;906.10;;;232.75;;
84982;SDS011;75295;45.426;9.696;2024-01-27T00:24:33;851.88;;;198.88;;
84982;SDS011;75295;45.426;9.696;2024-01-27T00:27:00;624.95;;;173.13;;
84982;SDS011;75295;45.426;9.696;2024-01-27T00:29:27;777.83;;;182.95;;
84982;SDS011;75295;45.426;9.696;2024-01-27T00:31:53;761.45;;;182.13;;
84982;SDS011;75295;45.426;9.696;2024-01-27T00:34:20;852.38;;;206.60;;
84982;SDS011;75295;45.426;9.696;2024-01-27T00:36:48;1052.82;;;205.82;;
84982;SDS011;75295;45.426;9.696;2024-01-27T00:39:15;872.80;;;186.80;;
84982;SDS011;75295;45.426;9.696;2024-01-27T00:41:43;761.17;;;171.05;;
84982;SDS011;75295;45.426;9.696;2024-01-27T00:44:10;696.20;;;172.65;;
84982;SDS011;75295;45.426;9.696;2024-01-27T00:46:37;596.20;;;163.13;;
84982;SDS011;75295;45.426;9.696;2024-01-27T00:49:04;626.58;;;173.70;;
84982;SDS011;75295;45.426;9.696;2024-01-27T00:51:32;737.05;;;161.52;;
84982;SDS011;75295;45.426;9.696;2024-01-27T00:53:59;680.10;;;167.15;;
84982;SDS011;75295;45.426;9.696;2024-01-27T00:56:26;522.95;;;152.95;;
84982;SDS011;75295;45.426;9.696;2024-01-27T00:58:52;811.95;;;211.43;;
84982;SDS011;75295;45.426;9.696;2024-01-27T01:01:19;694.13;;;163.85;;
84982;SDS011;75295;45.426;9.696;2024-01-27T01:03:46;527.75;;;149.23;;
84982;SDS011;75295;45.426;9.696;2024-01-27T01:06:12;500.42;;;160.10;;
84982;SDS011;75295;45.426;9.696;2024-01-27T01:08:39;624.53;;;153.10;;
84982;SDS011;75295;45.426;9.696;2024-01-27T01:11:06;510.73;;;155.05;;
84982;SDS011;75295;45.426;9.696;2024-01-27T01:13:33;522.67;;;154.65;;
84982;SDS011;75295;45.426;9.696;2024-01-27T01:16:01;433.33;;;135.80;;
84982;SDS011;75295;45.426;9.696;2024-01-27T01:18:29;513.33;;;164.40;;
84982;SDS011;75295;45.426;9.696;2024-01-27T01:20:56;464.42;;;134.32;;
84982;SDS011;75295;45.426;9.696;2024-01-27T01:23:23;454.63;;;140.07;;
84982;SDS011;75295;45.426;9.696;2024-01-27T01:25:50;483.73;;;142.77;;
84982;SDS011;75295;45.426;9.696;2024-01-27T01:28:16;418.38;;;130.45;;
84982;SDS011;75295;45.426;9.696;2024-01-27T01:30:43;439.75;;;123.65;;
84982;SDS011;75295;45.426;9.696;2024-01-27T01:33:10;575.13;;;131.38;;
84982;SDS011;75295;45.426;9.696;2024-01-27T01:35:37;367.75;;;126.93;;
84982;SDS011;75295;45.426;9.696;2024-01-27T01:38:04;409.95;;;123.30;;
84982;SDS011;75295;45.426;9.696;2024-01-27T01:40:30;530.70;;;129.65;;
84982;SDS011;75295;45.426;9.696;2024-01-27T01:42:58;724.15;;;168.55;;
84982;SDS011;75295;45.426;9.696;2024-01-27T01:45:25;913.70;;;168.23;;
84982;SDS011;75295;45.426;9.696;2024-01-27T01:47:52;863.67;;;168.10;;
84982;SDS011;75295;45.426;9.696;2024-01-27T01:50:18;478.00;;;126.22;;
84982;SDS011;75295;45.426;9.696;2024-01-27T01:52:47;524.97;;;121.95;;
84982;SDS011;75295;45.426;9.696;2024-01-27T01:55:15;411.10;;;116.20;;
84982;SDS011;75295;45.426;9.696;2024-01-27T01:57:43;461.13;;;123.30;;
84982;SDS011;75295;45.426;9.696;2024-01-27T02:00:11;388.35;;;117.05;;
84982;SDS011;75295;45.426;9.696;2024-01-27T02:02:39;434.48;;;115.07;;
84982;SDS011;75295;45.426;9.696;2024-01-27T02:05:06;360.95;;;116.65;;
84982;SDS011;75295;45.426;9.696;2024-01-27T02:07:35;494.30;;;117.43;;
84982;SDS011;75295;45.426;9.696;2024-01-27T02:10:02;350.73;;;117.32;;
84982;SDS011;75295;45.426;9.696;2024-01-27T02:12:30;559.13;;;125.20;;
84982;SDS011;75295;45.426;9.696;2024-01-27T02:14:57;395.45;;;114.68;;
84982;SDS011;75295;45.426;9.696;2024-01-27T02:17:25;560.15;;;121.00;;
84982;SDS011;75295;45.426;9.696;2024-01-27T02:19:52;350.73;;;116.80;;
84982;SDS011;75295;45.426;9.696;2024-01-27T02:22:19;487.27;;;119.70;;
84982;SDS011;75295;45.426;9.696;2024-01-27T02:24:47;381.08;;;116.60;;
84982;SDS011;75295;45.426;9.696;2024-01-27T02:27:14;403.05;;;113.55;;
84982;SDS011;75295;45.426;9.696;2024-01-27T02:29:40;429.52;;;111.10;;
84982;SDS011;75295;45.426;9.696;2024-01-27T02:32:07;349.45;;;115.07;;
84982;SDS011;75295;45.426;9.696;2024-01-27T02:34:34;388.15;;;108.43;;
84982;SDS011;75295;45.426;9.696;2024-01-27T02:37:00;418.48;;;113.75;;
84982;SDS011;75295;45.426;9.696;2024-01-27T02:39:27;456.25;;;123.63;;
84982;SDS011;75295;45.426;9.696;2024-01-27T02:41:54;454.23;;;115.25;;
84982;SDS011;75295;45.426;9.696;2024-01-27T02:44:21;722.90;;;144.88;;
84982;SDS011;75295;45.426;9.696;2024-01-27T02:46:48;524.83;;;129.80;;
84982;SDS011;75295;45.426;9.696;2024-01-27T02:49:15;576.05;;;127.20;;
84982;SDS011;75295;45.426;9.696;2024-01-27T02:51:42;603.13;;;132.90;;
84982;SDS011;75295;45.426;9.696;2024-01-27T02:54:10;632.38;;;133.13;;
84982;SDS011;75295;45.426;9.696;2024-01-27T02:56:38;405.27;;;130.73;;
84982;SDS011;75295;45.426;9.696;2024-01-27T02:59:05;626.85;;;134.82;;
84982;SDS011;75295;45.426;9.696;2024-01-27T03:01:33;694.53;;;133.75;;
84982;SDS011;75295;45.426;9.696;2024-01-27T03:03:59;569.72;;;133.90;;
84982;SDS011;75295;45.426;9.696;2024-01-27T03:06:26;378.05;;;125.13;;
84982;SDS011;75295;45.426;9.696;2024-01-27T03:08:53;490.75;;;129.88;;
84982;SDS011;75295;45.426;9.696;2024-01-27T03:11:20;579.60;;;133.02;;
84982;SDS011;75295;45.426;9.696;2024-01-27T03:13:47;570.00;;;130.93;;
84982;SDS011;75295;45.426;9.696;2024-01-27T03:16:14;510.45;;;145.93;;
84982;SDS011;75295;45.426;9.696;2024-01-27T03:18:43;515.83;;;134.50;;
84982;SDS011;75295;45.426;9.696;2024-01-27T03:21:10;522.42;;;142.52;;
84982;SDS011;75295;45.426;9.696;2024-01-27T03:23:36;489.27;;;131.80;;
84982;SDS011;75295;45.426;9.696;2024-01-27T03:26:03;557.05;;;142.48;;
84982;SDS011;75295;45.426;9.696;2024-01-27T03:28:30;573.72;;;139.70;;
84982;SDS011;75295;45.426;9.696;2024-01-27T03:30:57;592.47;;;144.65;;
84982;SDS011;75295;45.426;9.696;2024-01-27T03:33:25;582.20;;;166.20;;
84982;SDS011;75295;45.426;9.696;2024-01-27T03:35:55;636.28;;;152.05;;
84982;SDS011;75295;45.426;9.696;2024-01-27T03:38:22;472.48;;;143.07;;
84982;SDS011;75295;45.426;9.696;2024-01-27T03:40:49;509.23;;;135.18;;
84982;SDS011;75295;45.426;9.696;2024-01-27T03:43:16;413.63;;;128.60;;
84982;SDS011;75295;45.426;9.696;2024-01-27T03:45:44;533.55;;;131.65;;
84982;SDS011;75295;45.426;9.696;2024-01-27T03:48:11;468.52;;;120.80;;
84982;SDS011;75295;45.426;9.696;2024-01-27T03:50:38;463.42;;;135.43;;
84982;SDS011;75295;45.426;9.696;2024-01-27T03:53:05;537.25;;;132.27;;
84982;SDS011;75295;45.426;9.696;2024-01-27T03:55:32;540.67;;;140.15;;
84982;SDS011;75295;45.426;9.696;2024-01-27T03:58:00;438.58;;;128.07;;
84982;SDS011;75295;45.426;9.696;2024-01-27T04:00:27;512.72;;;142.65;;
84982;SDS011;75295;45.426;9.696;2024-01-27T04:02:59;438.58;;;128.70;;
84982;SDS011;75295;45.426;9.696;2024-01-27T04:05:27;509.42;;;126.07;;
84982;SDS011;75295;45.426;9.696;2024-01-27T04:07:56;465.48;;;127.18;;
84982;SDS011;75295;45.426;9.696;2024-01-27T04:10:23;396.75;;;116.97;;
84982;SDS011;75295;45.426;9.696;2024-01-27T04:12:50;617.25;;;142.20;;
84982;SDS011;75295;45.426;9.696;2024-01-27T04:15:17;541.42;;;131.65;;
84982;SDS011;75295;45.426;9.696;2024-01-27T04:17:43;489.88;;;116.43;;
84982;SDS011;75295;45.426;9.696;2024-01-27T04:20:12;483.08;;;115.75;;
84982;SDS011;75295;45.426;9.696;2024-01-27T04:22:39;327.30;;;111.88;;
84982;SDS011;75295;45.426;9.696;2024-01-27T04:25:09;482.05;;;133.57;;
84982;SDS011;75295;45.426;9.696;2024-01-27T04:27:37;507.17;;;122.72;;
84982;SDS011;75295;45.426;9.696;2024-01-27T04:30:08;461.73;;;128.07;;
84982;SDS011;75295;45.426;9.696;2024-01-27T04:32:36;465.38;;;129.18;;
84982;SDS011;75295;45.426;9.696;2024-01-27T04:35:04;387.77;;;128.35;;
84982;SDS011;75295;45.426;9.696;2024-01-27T04:37:35;466.42;;;117.35;;
84982;SDS011;75295;45.426;9.696;2024-01-27T04:40:06;299.90;;;110.30;;
84982;SDS011;75295;45.426;9.696;2024-01-27T04:42:33;317.13;;;100.82;;
84982;SDS011;75295;45.426;9.696;2024-01-27T04:45:01;391.30;;;112.15;;
84982;SDS011;75295;45.426;9.696;2024-01-27T04:47:30;297.42;;;104.18;;
84982;SDS011;75295;45.426;9.696;2024-01-27T04:49:57;471.73;;;123.22;;
84982;SDS011;75295;45.426;9.696;2024-01-27T04:52:24;349.27;;;103.43;;
84982;SDS011;75295;45.426;9.696;2024-01-27T04:54:51;228.57;;;73.07;;
84982;SDS011;75295;45.426;9.696;2024-01-27T04:57:18;282.40;;;102.97;;
84982;SDS011;75295;45.426;9.696;2024-01-27T04:59:45;281.20;;;99.03;;
84982;SDS011;75295;45.426;9.696;2024-01-27T05:02:12;299.45;;;99.40;;
84982;SDS011;75295;45.426;9.696;2024-01-27T05:04:39;258.17;;;94.38;;
84982;SDS011;75295;45.426;9.696;2024-01-27T05:07:06;406.80;;;104.10;;
84982;SDS011;75295;45.426;9.696;2024-01-27T05:09:33;349.40;;;97.07;;
84982;SDS011;75295;45.426;9.696;2024-01-27T05:12:01;376.13;;;101.47;;
84982;SDS011;75295;45.426;9.696;2024-01-27T05:14:29;266.05;;;95.85;;
84982;SDS011;75295;45.426;9.696;2024-01-27T05:16:56;364.38;;;105.10;;
84982;SDS011;75295;45.426;9.696;2024-01-27T05:19:24;261.30;;;80.35;;
84982;SDS011;75295;45.426;9.696;2024-01-27T05:21:52;377.30;;;106.65;;
84982;SDS011;75295;45.426;9.696;2024-01-27T05:24:19;462.30;;;106.28;;
84982;SDS011;75295;45.426;9.696;2024-01-27T05:26:48;341.13;;;112.25;;
84982;SDS011;75295;45.426;9.696;2024-01-27T05:29:15;328.92;;;100.97;;
84982;SDS011;75295;45.426;9.696;2024-01-27T05:31:42;360.77;;;96.15;;
84982;SDS011;75295;45.426;9.696;2024-01-27T05:34:12;294.63;;;90.15;;
84982;SDS011;75295;45.426;9.696;2024-01-27T05:36:39;250.90;;;89.47;;
84982;SDS011;75295;45.426;9.696;2024-01-27T05:39:06;296.02;;;96.28;;
84982;SDS011;75295;45.426;9.696;2024-01-27T05:41:34;289.55;;;90.07;;
84982;SDS011;75295;45.426;9.696;2024-01-27T05:44:00;279.15;;;94.07;;
84982;SDS011;75295;45.426;9.696;2024-01-27T05:46:27;320.25;;;86.05;;
84982;SDS011;75295;45.426;9.696;2024-01-27T05:48:54;247.73;;;94.60;;
84982;SDS011;75295;45.426;9.696;2024-01-27T05:51:27;312.27;;;93.93;;
84982;SDS011;75295;45.426;9.696;2024-01-27T05:53:54;310.45;;;104.07;;
84982;SDS011;75295;45.426;9.696;2024-01-27T05:56:20;258.35;;;90.80;;
84982;SDS011;75295;45.426;9.696;2024-01-27T05:58:48;279.15;;;95.82;;
84982;SDS011;75295;45.426;9.696;2024-01-27T06:01:19;392.63;;;99.13;;
84982;SDS011;75295;45.426;9.696;2024-01-27T06:03:46;267.60;;;88.50;;
84982;SDS011;75295;45.426;9.696;2024-01-27T06:06:12;275.92;;;92.57;;
84982;SDS011;75295;45.426;9.696;2024-01-27T06:08:40;324.65;;;87.25;;
84982;SDS011;75295;45.426;9.696;2024-01-27T06:11:08;292.77;;;93.15;;
84982;SDS011;75295;45.426;9.696;2024-01-27T06:13:35;350.55;;;111.40;;
84982;SDS011;75295;45.426;9.696;2024-01-27T06:16:06;408.55;;;105.43;;
84982;SDS011;75295;45.426;9.696;2024-01-27T06:18:36;368.90;;;105.68;;
84982;SDS011;75295;45.426;9.696;2024-01-27T06:21:05;327.33;;;99.82;;
84982;SDS011;75295;45.426;9.696;2024-01-27T06:23:32;294.27;;;97.18;;
84982;SDS011;75295;45.426;9.696;2024-01-27T06:25:58;260.27;;;95.22;;
84982;SDS011;75295;45.426;9.696;2024-01-27T06:28:25;224.20;;;80.72;;
84982;SDS011;75295;45.426;9.696;2024-01-27T06:30:54;288.15;;;97.65;;
84982;SDS011;75295;45.426;9.696;2024-01-27T06:33:22;257.05;;;82.13;;
84982;SDS011;75295;45.426;9.696;2024-01-27T06:35:48;335.10;;;92.95;;
84982;SDS011;75295;45.426;9.696;2024-01-27T06:38:15;196.73;;;54.90;;
84982;SDS011;75295;45.426;9.696;2024-01-27T06:40:42;185.68;;;65.47;;
84982;SDS011;75295;45.426;9.696;2024-01-27T06:43:10;203.50;;;71.63;;
84982;SDS011;75295;45.426;9.696;2024-01-27T06:45:39;298.40;;;88.95;;
84982;SDS011;75295;45.426;9.696;2024-01-27T06:48:08;242.60;;;92.40;;
84982;SDS011;75295;45.426;9.696;2024-01-27T06:50:35;170.70;;;60.63;;
84982;SDS011;75295;45.426;9.696;2024-01-27T06:53:02;271.13;;;84.95;;
84982;SDS011;75295;45.426;9.696;2024-01-27T06:55:29;254.57;;;89.95;;
84982;SDS011;75295;45.426;9.696;2024-01-27T06:57:56;361.90;;;96.18;;
84982;SDS011;75295;45.426;9.696;2024-01-27T07:00:22;291.98;;;86.20;;
84982;SDS011;75295;45.426;9.696;2024-01-27T07:02:49;288.35;;;88.82;;
84982;SDS011;75295;45.426;9.696;2024-01-27T07:05:16;324.98;;;97.55;;
84982;SDS011;75295;45.426;9.696;2024-01-27T07:07:43;307.20;;;95.90;;
84982;SDS011;75295;45.426;9.696;2024-01-27T07:10:10;328.92;;;99.65;;
84982;SDS011;75295;45.426;9.696;2024-01-27T07:12:37;372.25;;;97.10;;
84982;SDS011;75295;45.426;9.696;2024-01-27T07:15:05;291.80;;;97.97;;
84982;SDS011;75295;45.426;9.696;2024-01-27T07:17:32;331.88;;;91.70;;
84982;SDS011;75295;45.426;9.696;2024-01-27T07:19:59;304.35;;;93.72;;
84982;SDS011;75295;45.426;9.696;2024-01-27T07:22:25;334.23;;;93.15;;
84982;SDS011;75295;45.426;9.696;2024-01-27T07:24:52;296.27;;;102.53;;
84982;SDS011;75295;45.426;9.696;2024-01-27T07:27:19;306.23;;;103.15;;
84982;SDS011;75295;45.426;9.696;2024-01-27T07:29:46;414.98;;;104.95;;
84982;SDS011;75295;45.426;9.696;2024-01-27T07:32:12;472.13;;;110.75;;
84982;SDS011;75295;45.426;9.696;2024-01-27T07:34:43;371.88;;;102.03;;
84982;SDS011;75295;45.426;9.696;2024-01-27T07:37:12;353.38;;;102.53;;
84982;SDS011;75295;45.426;9.696;2024-01-27T07:39:39;447.98;;;106.43;;
84982;SDS011;75295;45.426;9.696;2024-01-27T07:42:06;345.70;;;102.45;;
84982;SDS011;75295;45.426;9.696;2024-01-27T07:44:34;346.27;;;101.60;;
84982;SDS011;75295;45.426;9.696;2024-01-27T07:47:41;303.33;;;99.57;;
84982;SDS011;75295;45.426;9.696;2024-01-27T07:50:15;528.08;;;113.90;;
84982;SDS011;75295;45.426;9.696;2024-01-27T07:52:45;357.25;;;99.65;;
84982;SDS011;75295;45.426;9.696;2024-01-27T07:55:14;371.17;;;102.85;;
84982;SDS011;75295;45.426;9.696;2024-01-27T07:57:43;288.30;;;104.43;;
84982;SDS011;75295;45.426;9.696;2024-01-27T08:00:43;335.92;;;98.53;;
84982;SDS011;75295;45.426;9.696;2024-01-27T08:03:43;496.52;;;114.35;;
84982;SDS011;75295;45.426;9.696;2024-01-27T08:06:28;272.27;;;104.00;;
84982;SDS011;75295;45.426;9.696;2024-01-27T08:08:58;307.35;;;95.47;;
84982;SDS011;75295;45.426;9.696;2024-01-27T08:11:26;358.30;;;99.35;;
84982;SDS011;75295;45.426;9.696;2024-01-27T08:13:58;269.25;;;85.70;;
84982;SDS011;75295;45.426;9.696;2024-01-27T08:17:05;358.17;;;107.35;;
84982;SDS011;75295;45.426;9.696;2024-01-27T08:19:45;285.13;;;99.63;;
84982;SDS011;75295;45.426;9.696;2024-01-27T08:22:55;302.73;;;95.75;;
84982;SDS011;75295;45.426;9.696;2024-01-27T08:26:05;333.50;;;94.90;;
84982;SDS011;75295;45.426;9.696;2024-01-27T08:28:54;288.52;;;95.22;;
84982;SDS011;75295;45.426;9.696;2024-01-27T08:31:42;317.23;;;99.75;;
84982;SDS011;75295;45.426;9.696;2024-01-27T08:34:12;327.45;;;98.63;;
84982;SDS011;75295;45.426;9.696;2024-01-27T08:37:14;292.33;;;98.63;;
84982;SDS011;75295;45.426;9.696;2024-01-27T08:39:55;402.05;;;105.00;;
84982;SDS011;75295;45.426;9.696;2024-01-27T08:43:04;439.00;;;108.88;;
84982;SDS011;75295;45.426;9.696;2024-01-27T08:46:14;379.55;;;112.68;;
84982;SDS011;75295;45.426;9.696;2024-01-27T08:48:43;528.95;;;125.30;;
84982;SDS011;75295;45.426;9.696;2024-01-27T08:51:13;387.23;;;110.30;;
84982;SDS011;75295;45.426;9.696;2024-01-27T08:53:42;429.30;;;118.07;;
84982;SDS011;75295;45.426;9.696;2024-01-27T08:56:17;435.17;;;109.57;;
84982;SDS011;75295;45.426;9.696;2024-01-27T08:58:45;393.98;;;114.07;;
84982;SDS011;75295;45.426;9.696;2024-01-27T09:01:16;325.83;;;102.63;;
84982;SDS011;75295;45.426;9.696;2024-01-27T09:03:43;289.88;;;103.65;;
84982;SDS011;75295;45.426;9.696;2024-01-27T09:06:10;310.83;;;105.03;;
84982;SDS011;75295;45.426;9.696;2024-01-27T09:08:37;285.75;;;99.95;;
84982;SDS011;75295;45.426;9.696;2024-01-27T09:11:03;310.08;;;101.78;;
84982;SDS011;75295;45.426;9.696;2024-01-27T09:13:30;292.27;;;105.07;;
84982;SDS011;75295;45.426;9.696;2024-01-27T09:15:57;286.13;;;99.85;;
84982;SDS011;75295;45.426;9.696;2024-01-27T09:18:25;291.85;;;97.00;;
84982;SDS011;75295;45.426;9.696;2024-01-27T09:20:53;325.20;;;103.15;;
84982;SDS011;75295;45.426;9.696;2024-01-27T09:23:20;351.08;;;102.13;;
84982;SDS011;75295;45.426;9.696;2024-01-27T09:25:47;324.50;;;98.60;;
84982;SDS011;75295;45.426;9.696;2024-01-27T09:28:14;338.05;;;97.15;;
84982;SDS011;75295;45.426;9.696;2024-01-27T09:30:42;243.95;;;97.05;;
84982;SDS011;75295;45.426;9.696;2024-01-27T09:33:08;266.98;;;95.82;;
84982;SDS011;75295;45.426;9.696;2024-01-27T09:35:36;279.75;;;107.55;;
84982;SDS011;75295;45.426;9.696;2024-01-27T09:38:02;353.60;;;93.65;;
84982;SDS011;75295;45.426;9.696;2024-01-27T09:40:30;311.48;;;98.65;;
84982;SDS011;75295;45.426;9.696;2024-01-27T09:42:57;350.58;;;112.43;;
84982;SDS011;75295;45.426;9.696;2024-01-27T09:45:26;322.08;;;105.47;;
84982;SDS011;75295;45.426;9.696;2024-01-27T09:47:53;260.08;;;94.05;;
84982;SDS011;75295;45.426;9.696;2024-01-27T09:50:25;321.52;;;98.45;;
84982;SDS011;75295;45.426;9.696;2024-01-27T09:52:53;340.40;;;102.18;;
84982;SDS011;75295;45.426;9.696;2024-01-27T09:55:20;303.42;;;107.03;;
84982;SDS011;75295;45.426;9.696;2024-01-27T09:57:48;256.75;;;101.18;;
84982;SDS011;75295;45.426;9.696;2024-01-27T10:00:15;296.80;;;103.88;;
84982;SDS011;75295;45.426;9.696;2024-01-27T10:02:42;360.58;;;107.85;;
84982;SDS011;75295;45.426;9.696;2024-01-27T10:05:13;225.18;;;92.40;;
84982;SDS011;75295;45.426;9.696;2024-01-27T10:07:43;318.63;;;110.72;;
84982;SDS011;75295;45.426;9.696;2024-01-27T10:10:10;235.10;;;106.65;;
84982;SDS011;75295;45.426;9.696;2024-01-27T10:12:39;283.33;;;94.10;;
84982;SDS011;75295;45.426;9.696;2024-01-27T10:15:19;219.02;;;91.00;;
84982;SDS011;75295;45.426;9.696;2024-01-27T10:17:47;205.95;;;95.93;;
84982;SDS011;75295;45.426;9.696;2024-01-27T10:20:14;192.23;;;95.32;;
84982;SDS011;75295;45.426;9.696;2024-01-27T10:22:42;171.57;;;90.07;;
84982;SDS011;75295;45.426;9.696;2024-01-27T10:25:11;181.52;;;91.75;;
84982;SDS011;75295;45.426;9.696;2024-01-27T10:27:39;168.88;;;85.15;;
84982;SDS011;75295;45.426;9.696;2024-01-27T10:30:06;172.90;;;86.40;;
84982;SDS011;75295;45.426;9.696;2024-01-27T10:32:43;164.77;;;86.30;;
84982;SDS011;75295;45.426;9.696;2024-01-27T10:35:10;150.93;;;80.15;;
84982;SDS011;75295;45.426;9.696;2024-01-27T10:37:37;169.65;;;90.55;;
84982;SDS011;75295;45.426;9.696;2024-01-27T10:40:04;177.05;;;97.75;;
84982;SDS011;75295;45.426;9.696;2024-01-27T10:42:39;157.50;;;87.50;;
84982;SDS011;75295;45.426;9.696;2024-01-27T10:45:07;164.73;;;91.18;;
84982;SDS011;75295;45.426;9.696;2024-01-27T10:47:38;149.60;;;79.57;;
84982;SDS011;75295;45.426;9.696;2024-01-27T10:50:07;146.48;;;77.50;;
84982;SDS011;75295;45.426;9.696;2024-01-27T10:52:38;129.65;;;72.03;;
84982;SDS011;75295;45.426;9.696;2024-01-27T10:55:09;137.20;;;74.78;;
84982;SDS011;75295;45.426;9.696;2024-01-27T10:57:37;124.93;;;65.65;;
84982;SDS011;75295;45.426;9.696;2024-01-27T11:00:07;126.22;;;73.43;;
84982;SDS011;75295;45.426;9.696;2024-01-27T11:02:35;136.55;;;75.43;;
84982;SDS011;75295;45.426;9.696;2024-01-27T11:05:03;127.43;;;76.18;;
84982;SDS011;75295;45.426;9.696;2024-01-27T11:07:33;128.27;;;73.85;;
84982;SDS011;75295;45.426;9.696;2024-01-27T11:10:01;137.95;;;77.03;;
84982;SDS011;75295;45.426;9.696;2024-01-27T11:12:28;134.40;;;71.75;;
84982;SDS011;75295;45.426;9.696;2024-01-27T11:14:56;121.32;;;69.68;;
84982;SDS011;75295;45.426;9.696;2024-01-27T11:17:26;132.55;;;77.47;;
84982;SDS011;75295;45.426;9.696;2024-01-27T11:19:55;128.35;;;77.53;;
84982;SDS011;75295;45.426;9.696;2024-01-27T11:22:26;133.00;;;75.13;;
84982;SDS011;75295;45.426;9.696;2024-01-27T11:25:14;124.57;;;70.35;;
84982;SDS011;75295;45.426;9.696;2024-01-27T11:27:43;112.72;;;60.60;;
84982;SDS011;75295;45.426;9.696;2024-01-27T11:30:28;115.00;;;61.80;;
84982;SDS011;75295;45.426;9.696;2024-01-27T11:33:03;132.63;;;71.45;;
84982;SDS011;75295;45.426;9.696;2024-01-27T11:35:31;122.80;;;66.20;;
84982;SDS011;75295;45.426;9.696;2024-01-27T11:37:58;126.55;;;68.18;;
84982;SDS011;75295;45.426;9.696;2024-01-27T11:40:25;135.18;;;75.30;;
84982;SDS011;75295;45.426;9.696;2024-01-27T11:42:58;129.32;;;70.97;;
84982;SDS011;75295;45.426;9.696;2024-01-27T11:45:27;140.98;;;79.05;;
84982;SDS011;75295;45.426;9.696;2024-01-27T11:47:56;127.80;;;73.55;;
84982;SDS011;75295;45.426;9.696;2024-01-27T11:50:23;129.77;;;76.32;;
84982;SDS011;75295;45.426;9.696;2024-01-27T11:52:49;118.80;;;69.00;;
84982;SDS011;75295;45.426;9.696;2024-01-27T11:55:16;134.20;;;78.30;;
84982;SDS011;75295;45.426;9.696;2024-01-27T11:57:45;122.50;;;73.40;;
84982;SDS011;75295;45.426;9.696;2024-01-27T12:00:11;128.45;;;77.72;;
84982;SDS011;75295;45.426;9.696;2024-01-27T12:02:39;114.15;;;68.47;;
84982;SDS011;75295;45.426;9.696;2024-01-27T12:05:08;118.53;;;73.43;;
84982;SDS011;75295;45.426;9.696;2024-01-27T12:07:35;121.63;;;75.95;;
84982;SDS011;75295;45.426;9.696;2024-01-27T12:10:03;122.70;;;74.65;;
84982;SDS011;75295;45.426;9.696;2024-01-27T12:12:31;120.47;;;74.20;;
84982;SDS011;75295;45.426;9.696;2024-01-27T12:14:57;117.07;;;71.53;;
84982;SDS011;75295;45.426;9.696;2024-01-27T12:17:28;116.68;;;74.07;;
84982;SDS011;75295;45.426;9.696;2024-01-27T12:19:55;112.72;;;72.07;;
84982;SDS011;75295;45.426;9.696;2024-01-27T12:22:25;110.50;;;69.63;;
84982;SDS011;75295;45.426;9.696;2024-01-27T12:24:55;118.22;;;74.45;;
84982;SDS011;75295;45.426;9.696;2024-01-27T12:32:10;117.53;;;70.55;;
84982;SDS011;75295;45.426;9.696;2024-01-27T12:34:42;113.90;;;72.10;;
84982;SDS011;75295;45.426;9.696;2024-01-27T12:37:16;115.13;;;71.68;;
84982;SDS011;75295;45.426;9.696;2024-01-27T12:40:20;109.38;;;70.53;;
84982;SDS011;75295;45.426;9.696;2024-01-27T12:42:52;113.65;;;72.40;;
84982;SDS011;75295;45.426;9.696;2024-01-27T12:48:14;108.22;;;66.63;;
84982;SDS011;75295;45.426;9.696;2024-01-27T12:50:41;115.25;;;73.22;;
84982;SDS011;75295;45.426;9.696;2024-01-27T12:53:13;109.38;;;71.32;;
84982;SDS011;75295;45.426;9.696;2024-01-27T12:55:45;104.05;;;68.43;;
84982;SDS011;75295;45.426;9.696;2024-01-27T12:58:22;108.28;;;69.22;;
84982;SDS011;75295;45.426;9.696;2024-01-27T13:00:55;102.97;;;65.68;;
84982;SDS011;75295;45.426;9.696;2024-01-27T13:03:29;101.65;;;66.10;;
84982;SDS011;75295;45.426;9.696;2024-01-27T13:06:47;109.55;;;70.63;;
84982;SDS011;75295;45.426;9.696;2024-01-27T13:11:11;99.97;;;67.10;;
84982;SDS011;75295;45.426;9.696;2024-01-27T13:27:57;104.15;;;69.18;;
84982;SDS011;75295;45.426;9.696;2024-01-27T13:32:14;98.45;;;65.28;;
84982;SDS011;75295;45.426;9.696;2024-01-27T13:34:41;102.65;;;70.03;;
84982;SDS011;75295;45.426;9.696;2024-01-27T13:43:53;98.65;;;67.05;;
84982;SDS011;75295;45.426;9.696;2024-01-27T13:46:34;98.68;;;69.00;;
84982;SDS011;75295;45.426;9.696;2024-01-27T13:50:11;103.70;;;71.38;;
84982;SDS011;75295;45.426;9.696;2024-01-27T13:52:43;99.10;;;69.75;;
84982;SDS011;75295;45.426;9.696;2024-01-27T13:56:28;95.47;;;62.92;;
84982;SDS011;75295;45.426;9.696;2024-01-27T14:03:44;96.00;;;65.78;;
84982;SDS011;75295;45.426;9.696;2024-01-27T14:06:22;91.40;;;67.13;;
84982;SDS011;75295;45.426;9.696;2024-01-27T14:08:52;92.35;;;64.55;;
84982;SDS011;75295;45.426;9.696;2024-01-27T14:11:29;95.68;;;64.45;;
84982;SDS011;75295;45.426;9.696;2024-01-27T14:27:38;94.13;;;65.25;;
84982;SDS011;75295;45.426;9.696;2024-01-27T14:35:17;98.45;;;65.05;;
84982;SDS011;75295;45.426;9.696;2024-01-27T14:39:47;97.93;;;67.78;;
84982;SDS011;75295;45.426;9.696;2024-01-27T14:56:45;95.75;;;66.80;;
84982;SDS011;75295;45.426;9.696;2024-01-27T15:00:20;95.63;;;64.95;;
84982;SDS011;75295;45.426;9.696;2024-01-27T15:03:31;99.82;;;68.22;;
84982;SDS011;75295;45.426;9.696;2024-01-27T15:06:33;89.63;;;65.07;;
84982;SDS011;75295;45.426;9.696;2024-01-27T15:13:51;98.55;;;66.65;;
84982;SDS011;75295;45.426;9.696;2024-01-27T15:22:09;92.22;;;64.28;;
84982;SDS011;75295;45.426;9.696;2024-01-27T15:28:46;100.35;;;69.07;;
84982;SDS011;75295;45.426;9.696;2024-01-27T15:31:16;107.22;;;73.57;;
84982;SDS011;75295;45.426;9.696;2024-01-27T15:33:45;101.95;;;73.18;;
84982;SDS011;75295;45.426;9.696;2024-01-27T15:36:12;102.53;;;71.07;;
84982;SDS011;75295;45.426;9.696;2024-01-27T15:38:39;95.70;;;69.82;;
84982;SDS011;75295;45.426;9.696;2024-01-27T15:41:06;103.05;;;69.40;;
84982;SDS011;75295;45.426;9.696;2024-01-27T15:43:34;98.30;;;68.22;;
84982;SDS011;75295;45.426;9.696;2024-01-27T15:46:27;98.43;;;66.13;;
84982;SDS011;75295;45.426;9.696;2024-01-27T15:49:07;99.93;;;70.30;;